createdAt,value
2019-05-11T00:02:16.931Z,39.36
2019-05-11T00:04:43.224Z,40.60
2019-05-11T00:07:09.555Z,39.65
2019-05-11T00:09:35.840Z,40.15
2019-05-11T00:12:02.137Z,40.22
2019-05-11T00:14:28.868Z,40.00
2019-05-11T00:16:55.161Z,40.15
2019-05-11T00:19:21.450Z,39.21
2019-05-11T00:21:47.773Z,41.74
2019-05-11T00:24:14.085Z,40.70
2019-05-11T00:26:40.379Z,40.18
2019-05-11T00:29:06.714Z,40.82
2019-05-11T00:31:33.335Z,40.67
2019-05-11T00:33:59.657Z,39.44
2019-05-11T00:36:25.956Z,38.32
2019-05-11T00:38:52.244Z,38.34
2019-05-11T00:41:18.527Z,39.90
2019-05-11T00:43:44.854Z,39.11
2019-05-11T00:46:11.149Z,41.38
2019-05-11T00:48:37.439Z,40.40
2019-05-11T00:51:03.764Z,42.98
2019-05-11T00:53:30.061Z,41.69
2019-05-11T00:55:56.357Z,43.70
2019-05-11T00:58:22.682Z,42.07
2019-05-11T01:00:48.972Z,42.06
2019-05-11T01:03:15.308Z,40.46
2019-05-11T01:05:41.642Z,39.62
2019-05-11T01:08:07.937Z,39.34
2019-05-11T01:10:42.270Z,38.04
2019-05-11T01:13:02.463Z,40.17
2019-05-11T01:15:28.747Z,38.49
2019-05-11T01:17:55.036Z,38.84
2019-05-11T01:20:21.368Z,40.47
2019-05-11T01:22:47.657Z,39.28
2019-05-11T01:25:13.953Z,41.00
2019-05-11T01:27:40.284Z,39.36
2019-05-11T01:30:07.868Z,39.84
2019-05-11T01:32:34.179Z,39.54
2019-05-11T01:35:00.787Z,40.02
2019-05-11T01:37:27.081Z,37.82
2019-05-11T01:39:53.369Z,38.64
2019-05-11T01:42:19.704Z,40.20
2019-05-11T01:44:46.001Z,40.26
2019-05-11T01:47:12.286Z,40.06
2019-05-11T01:49:38.604Z,38.58
2019-05-11T01:52:04.908Z,40.49
2019-05-11T01:54:31.200Z,40.16
2019-05-11T01:56:57.533Z,38.83
2019-05-11T01:59:23.821Z,39.69
2019-05-11T02:01:50.113Z,37.87
2019-05-11T02:04:16.513Z,38.94
2019-05-11T02:06:42.809Z,40.86
2019-05-11T02:09:09.111Z,39.57
2019-05-11T02:11:35.451Z,40.06
2019-05-11T02:14:02.145Z,41.57
2019-05-11T02:16:28.450Z,39.92
2019-05-11T02:18:54.767Z,41.52
2019-05-11T02:21:21.060Z,41.36
2019-05-11T02:23:47.355Z,40.56
2019-05-11T02:26:13.688Z,42.14
2019-05-11T02:28:39.974Z,40.90
2019-05-11T02:31:06.267Z,42.02
2019-05-11T02:33:32.600Z,40.42
2019-05-11T02:35:58.897Z,41.59
2019-05-11T02:38:25.187Z,40.87
2019-05-11T02:40:51.518Z,41.13
2019-05-11T02:43:18.093Z,41.18
2019-05-11T02:45:44.378Z,41.71
2019-05-11T02:48:10.718Z,43.42
2019-05-11T02:50:38.451Z,43.40
2019-05-11T02:53:06.512Z,41.58
2019-05-11T02:55:34.436Z,41.04
2019-05-11T02:58:00.727Z,40.31
2019-05-11T03:00:54.720Z,39.78
2019-05-11T03:03:21.013Z,40.74
2019-05-11T03:05:48.240Z,41.85
2019-05-11T03:08:17.359Z,41.69
2019-05-11T03:10:43.642Z,42.66
2019-05-11T03:13:09.940Z,40.82
2019-05-11T03:15:36.376Z,42.14
2019-05-11T03:18:02.748Z,39.72
2019-05-11T03:27:44.861Z,40.02
2019-05-11T03:30:11.852Z,40.23
2019-05-11T03:32:38.149Z,37.91
2019-05-11T03:35:04.597Z,39.80
2019-05-11T03:37:30.891Z,39.54
2019-05-11T03:39:57.192Z,41.37
2019-05-11T03:42:23.524Z,38.92
2019-05-11T03:44:49.855Z,36.31
2019-05-11T03:47:16.185Z,37.00
2019-05-11T03:49:42.497Z,34.46
2019-05-11T03:52:08.783Z,30.47
2019-05-11T03:54:35.076Z,25.42
2019-05-11T03:57:01.434Z,24.37
2019-05-11T03:59:27.770Z,23.65
2019-05-11T04:01:54.053Z,22.16
2019-05-11T04:04:20.376Z,24.39
2019-05-11T04:06:47.513Z,26.75
2019-05-11T04:09:13.682Z,28.83
2019-05-11T04:11:39.866Z,31.00
2019-05-11T04:14:06.147Z,36.29
2019-05-11T04:16:32.306Z,36.92
2019-05-11T04:18:58.501Z,37.38
2019-05-11T04:21:24.679Z,37.71
2019-05-11T04:23:50.979Z,38.58
2019-05-11T04:26:17.166Z,40.13
2019-05-11T04:28:43.325Z,37.16
2019-05-11T04:31:09.506Z,36.61
2019-05-11T04:33:35.687Z,35.92
2019-05-11T04:36:01.877Z,33.92
2019-05-11T04:38:28.042Z,33.25
2019-05-11T04:40:54.245Z,31.58
2019-05-11T04:43:20.404Z,32.56
2019-05-11T04:45:46.582Z,32.33
2019-05-11T04:48:12.787Z,31.54
2019-05-11T04:50:38.937Z,31.10
2019-05-11T04:53:05.126Z,28.20
2019-05-11T04:55:31.320Z,25.03
2019-05-11T04:57:57.469Z,25.45
2019-05-11T05:00:23.642Z,23.01
2019-05-11T05:02:50.874Z,23.73
2019-05-11T05:05:17.032Z,24.80
2019-05-11T05:07:49.366Z,26.50
2019-05-11T05:10:13.963Z,25.40
2019-05-11T05:12:39.521Z,24.19
2019-05-11T05:15:05.708Z,23.89
2019-05-11T05:17:31.915Z,23.55
2019-05-11T05:19:58.071Z,26.67
2019-05-11T05:22:29.368Z,23.94
2019-05-11T05:24:55.565Z,23.20
2019-05-11T05:27:21.725Z,23.83
2019-05-11T05:29:47.906Z,22.79
2019-05-11T05:32:14.189Z,22.41
2019-05-11T05:34:40.367Z,23.44
2019-05-11T05:37:06.549Z,22.98
2019-05-11T05:39:32.729Z,24.59
2019-05-11T05:41:58.888Z,24.67
2019-05-11T05:44:27.782Z,23.38
2019-05-11T05:46:54.282Z,22.69
2019-05-11T05:49:20.434Z,22.44
2019-05-11T05:51:46.612Z,22.54
2019-05-11T05:54:12.796Z,23.59
2019-05-11T05:56:39.157Z,22.63
2019-05-11T05:59:05.333Z,23.46
2019-05-11T06:01:31.529Z,25.46
2019-05-11T06:03:57.824Z,25.27
2019-05-11T06:06:23.987Z,24.01
2019-05-11T06:08:50.257Z,23.75
2019-05-11T06:11:16.405Z,24.02
2019-05-11T06:13:45.665Z,22.70
2019-05-11T06:16:10.695Z,23.98
2019-05-11T06:18:36.842Z,23.60
2019-05-11T06:21:03.144Z,23.53
2019-05-11T06:23:29.630Z,22.64
2019-05-11T06:25:55.795Z,22.94
2019-05-11T06:28:21.952Z,24.88
2019-05-11T06:30:48.201Z,24.51
2019-05-11T06:33:14.374Z,25.91
2019-05-11T06:35:40.523Z,23.72
2019-05-11T06:38:06.740Z,24.93
2019-05-11T06:40:32.901Z,25.49
2019-05-11T06:42:59.076Z,25.18
2019-05-11T06:45:25.391Z,25.55
2019-05-11T06:47:51.564Z,24.23
2019-05-11T06:50:17.741Z,24.96
2019-05-11T06:52:44.054Z,24.41
2019-05-11T06:55:10.212Z,24.29
2019-05-11T06:57:36.396Z,27.75
2019-05-11T07:00:05.315Z,27.73
2019-05-11T07:02:31.470Z,27.83
2019-05-11T07:04:57.625Z,24.40
2019-05-11T07:07:23.828Z,23.14
2019-05-11T07:09:50.994Z,24.31
2019-05-11T07:12:17.383Z,25.06
2019-05-11T07:14:43.714Z,25.35
2019-05-11T07:17:09.865Z,26.26
2019-05-11T07:19:36.024Z,28.13
2019-05-11T07:22:02.240Z,27.14
2019-05-11T07:24:28.418Z,26.10
2019-05-11T07:26:54.582Z,25.15
2019-05-11T07:29:20.799Z,23.13
2019-05-11T07:31:47.310Z,25.39
2019-05-11T07:34:13.467Z,24.52
2019-05-11T07:36:39.684Z,25.19
2019-05-11T07:39:08.308Z,27.23
2019-05-11T07:41:34.317Z,27.09
2019-05-11T07:44:00.542Z,25.02
2019-05-11T07:46:28.794Z,24.40
2019-05-11T07:48:54.778Z,25.80
2019-05-11T07:51:21.099Z,24.68
2019-05-11T07:53:48.648Z,24.48
2019-05-11T07:56:15.133Z,23.05
2019-05-11T07:58:41.344Z,22.80
2019-05-11T08:01:08.694Z,22.84
2019-05-11T08:03:35.063Z,22.91
2019-05-11T08:06:02.933Z,23.71
2019-05-11T08:08:29.358Z,22.28
2019-05-11T08:10:55.582Z,23.21
2019-05-11T08:13:21.795Z,22.81
2019-05-11T08:15:48.832Z,23.53
2019-05-11T08:18:15.324Z,24.17
2019-05-11T08:20:41.534Z,24.28
2019-05-11T08:23:09.061Z,24.96
2019-05-11T08:25:37.836Z,24.08
2019-05-11T08:28:03.707Z,24.17
2019-05-11T08:30:29.861Z,23.20
2019-05-11T08:32:58.165Z,24.90
2019-05-11T08:35:27.569Z,24.04
2019-05-11T08:37:52.194Z,24.99
2019-05-11T08:40:18.542Z,25.44
2019-05-11T08:42:44.732Z,26.51
2019-05-11T08:45:20.489Z,25.97
2019-05-11T08:47:39.445Z,25.04
2019-05-11T08:50:08.042Z,25.35
2019-05-11T08:52:33.946Z,24.14
2019-05-11T08:55:00.111Z,24.42
2019-05-11T08:57:28.462Z,23.64
2019-05-11T08:59:54.381Z,25.18
2019-05-11T09:02:20.565Z,22.57
2019-05-11T09:04:48.367Z,23.56
2019-05-11T09:07:14.827Z,24.33
2019-05-11T09:09:41.001Z,25.24
2019-05-11T09:12:07.913Z,23.02
2019-05-11T09:14:34.235Z,24.45
2019-05-11T09:17:00.387Z,24.43
2019-05-11T09:19:28.487Z,22.59
2019-05-11T09:21:54.786Z,22.40
2019-05-11T09:24:20.945Z,23.50
2019-05-11T09:26:47.951Z,24.29
2019-05-11T09:29:14.321Z,24.58
2019-05-11T09:31:40.823Z,24.70
2019-05-11T09:34:09.171Z,23.23
2019-05-11T09:36:35.442Z,23.61
2019-05-11T09:39:01.573Z,27.37
2019-05-11T09:41:29.107Z,25.78
2019-05-11T09:43:58.595Z,26.04
2019-05-11T09:46:24.507Z,27.04
2019-05-11T09:48:50.711Z,27.70
2019-05-11T09:51:18.388Z,26.55
2019-05-11T09:53:44.930Z,25.27
2019-05-11T09:56:11.114Z,25.59
2019-05-11T09:58:38.628Z,22.55
2019-05-11T10:01:05.170Z,22.24
2019-05-11T10:03:31.360Z,22.82
2019-05-11T10:05:58.138Z,24.75
2019-05-11T10:08:24.396Z,21.87
2019-05-11T10:10:50.997Z,23.02
2019-05-11T10:13:18.661Z,23.56
2019-05-11T10:16:00.015Z,24.25
2019-05-11T10:18:18.470Z,24.39
2019-05-11T10:20:44.214Z,21.23
2019-05-11T10:23:10.390Z,19.27
2019-05-11T10:25:38.781Z,21.87
2019-05-11T10:28:04.699Z,20.33
2019-05-11T10:30:30.951Z,20.45
2019-05-11T10:32:57.837Z,19.82
2019-05-11T10:35:24.399Z,20.17
2019-05-11T10:37:50.557Z,20.28
2019-05-11T10:40:18.938Z,22.00
2019-05-11T10:42:44.816Z,20.61
2019-05-11T10:45:11.379Z,19.23
2019-05-11T10:47:38.348Z,21.38
2019-05-11T10:50:08.376Z,20.32
2019-05-11T10:52:34.033Z,20.60
2019-05-11T10:55:00.220Z,20.96
2019-05-11T10:57:28.325Z,22.59
2019-05-11T10:59:54.465Z,19.31
2019-05-11T11:02:20.655Z,18.03
2019-05-11T11:04:48.545Z,19.60
2019-05-11T11:07:17.228Z,19.84
2019-05-11T11:09:42.985Z,20.08
2019-05-11T11:12:09.165Z,19.71
2019-05-11T11:14:37.539Z,18.24
2019-05-11T11:17:03.486Z,18.88
2019-05-11T11:19:29.754Z,18.02
2019-05-11T11:21:59.060Z,17.36
2019-05-11T11:24:24.031Z,17.13
2019-05-11T11:26:50.210Z,18.36
2019-05-11T11:29:17.864Z,20.94
2019-05-11T11:31:44.393Z,19.46
2019-05-11T11:34:10.633Z,19.32
2019-05-11T11:36:37.634Z,19.12
2019-05-11T11:39:05.721Z,19.83
2019-05-11T11:41:31.883Z,19.49
2019-05-11T11:43:58.617Z,18.13
2019-05-11T11:46:25.309Z,19.16
2019-05-11T11:48:51.470Z,19.77
2019-05-11T11:51:18.780Z,19.73
2019-05-11T11:53:47.254Z,19.49
2019-05-11T11:56:13.229Z,20.13
2019-05-11T11:58:39.500Z,19.21
2019-05-11T12:01:08.133Z,18.88
2019-05-11T12:03:33.867Z,18.01
2019-05-11T12:06:00.028Z,16.90
2019-05-11T12:08:28.270Z,17.86
2019-05-11T12:10:54.303Z,17.82
2019-05-11T12:13:22.640Z,18.60
2019-05-11T12:15:49.767Z,17.30
2019-05-11T12:18:15.919Z,16.93
2019-05-11T12:20:42.700Z,15.79
2019-05-11T12:23:08.973Z,16.55
2019-05-11T12:25:38.258Z,16.72
2019-05-11T12:28:03.357Z,16.36
2019-05-11T12:30:29.648Z,15.98
2019-05-11T12:32:57.700Z,15.79
2019-05-11T12:35:23.879Z,16.86
2019-05-11T12:37:50.194Z,16.98
2019-05-11T12:40:18.024Z,15.83
2019-05-11T12:42:44.320Z,16.70
2019-05-11T12:45:10.920Z,16.28
2019-05-11T12:47:38.489Z,15.44
2019-05-11T12:50:07.915Z,15.77
2019-05-11T12:52:34.393Z,16.12
2019-05-11T12:55:00.649Z,17.56
2019-05-11T12:57:28.126Z,16.53
2019-05-11T12:59:54.723Z,16.60
2019-05-11T13:02:20.877Z,16.61
2019-05-11T13:04:47.745Z,16.12
2019-05-11T13:07:16.569Z,17.30
2019-05-11T13:09:42.424Z,16.41
2019-05-11T13:12:08.602Z,16.27
2019-05-11T13:14:34.801Z,16.80
2019-05-11T13:17:02.771Z,16.61
2019-05-11T13:19:28.945Z,16.68
2019-05-11T13:21:55.132Z,16.33
2019-05-11T13:24:21.419Z,16.38
2019-05-11T13:26:48.540Z,15.93
2019-05-11T13:29:15.010Z,16.88
2019-05-11T13:31:41.175Z,16.59
2019-05-11T13:34:08.377Z,17.29
2019-05-11T13:36:34.863Z,16.70
2019-05-11T13:39:01.016Z,17.21
2019-05-11T13:41:28.027Z,17.08
2019-05-11T13:43:54.490Z,17.97
2019-05-11T13:46:20.770Z,17.08
2019-05-11T13:48:47.656Z,18.25
2019-05-11T13:51:14.275Z,18.74
2019-05-11T13:53:40.434Z,18.55
2019-05-11T13:56:08.077Z,19.42
2019-05-11T13:58:34.716Z,17.75
2019-05-11T14:01:01.025Z,17.66
2019-05-11T14:03:27.779Z,16.73
2019-05-11T14:05:54.049Z,17.11
2019-05-11T14:08:20.300Z,16.15
2019-05-11T14:10:48.647Z,17.70
2019-05-11T14:13:14.690Z,18.01
2019-05-11T14:15:40.863Z,17.89
2019-05-11T14:18:09.428Z,18.03
2019-05-11T14:20:35.190Z,17.85
2019-05-11T14:23:01.344Z,17.96
2019-05-11T14:25:28.099Z,17.42
2019-05-11T14:27:54.419Z,17.04
2019-05-11T14:30:20.695Z,17.32
2019-05-11T14:32:47.815Z,18.00
2019-05-11T14:35:14.411Z,17.39
2019-05-11T14:37:41.500Z,17.49
2019-05-11T14:40:08.730Z,18.40
2019-05-11T14:42:35.379Z,17.32
2019-05-11T14:45:01.528Z,16.95
2019-05-11T14:47:28.359Z,16.86
2019-05-11T14:49:54.738Z,18.66
2019-05-11T14:52:20.904Z,17.84
2019-05-11T14:54:48.552Z,17.76
2019-05-11T14:57:15.656Z,17.87
2019-05-11T14:59:41.904Z,17.67
2019-05-11T15:02:28.542Z,17.93
2019-05-11T15:04:54.674Z,18.03
2019-05-11T15:07:20.835Z,18.77
2019-05-11T15:09:48.094Z,17.29
2019-05-11T15:12:14.324Z,18.40
2019-05-11T15:14:40.503Z,18.28
2019-05-11T15:17:08.125Z,18.25
2019-05-11T15:19:34.523Z,18.05
2019-05-11T15:22:00.678Z,18.26
2019-05-11T15:24:28.841Z,17.36
2019-05-11T15:26:55.064Z,17.39
2019-05-11T15:29:21.350Z,17.72
2019-05-11T15:31:48.572Z,19.25
2019-05-11T15:34:14.921Z,17.97
2019-05-11T15:36:44.008Z,17.51
2019-05-11T15:39:09.296Z,16.88
2019-05-11T15:41:35.477Z,17.60
2019-05-11T15:44:01.653Z,18.18
2019-05-11T15:46:28.365Z,18.24
2019-05-11T15:49:02.135Z,17.98
2019-05-11T15:51:22.784Z,17.77
2019-05-11T15:53:50.321Z,17.59
2019-05-11T15:56:18.770Z,17.49
2019-05-11T15:58:48.374Z,17.13
2019-05-11T16:01:14.543Z,16.92
2019-05-11T16:03:40.718Z,16.99
2019-05-11T16:06:07.831Z,16.95
2019-05-11T16:08:34.370Z,17.13
2019-05-11T16:11:00.548Z,17.57
2019-05-11T16:13:28.518Z,18.49
2019-05-11T16:15:54.918Z,19.27
2019-05-11T16:18:21.931Z,19.28
2019-05-11T16:20:50.265Z,19.72
2019-05-11T16:23:17.518Z,19.35
2019-05-11T16:25:44.350Z,18.84
2019-05-11T16:28:12.028Z,18.84
2019-05-11T16:30:38.233Z,19.33
2019-05-11T16:33:04.371Z,19.63
2019-05-11T16:35:30.559Z,19.57
2019-05-11T16:37:59.043Z,19.64
2019-05-11T16:40:24.946Z,19.79
2019-05-11T16:42:51.129Z,20.11
2019-05-11T16:45:18.913Z,20.53
2019-05-11T16:47:47.660Z,20.74
2019-05-11T16:50:13.788Z,20.86
2019-05-11T16:52:39.987Z,21.24
2019-05-11T16:55:07.857Z,21.48
2019-05-11T16:57:34.232Z,21.89
2019-05-11T17:00:00.425Z,21.74
2019-05-11T17:02:27.417Z,21.72
2019-05-11T17:04:54.670Z,22.25
2019-05-11T17:07:20.861Z,22.86
2019-05-11T17:09:48.253Z,24.25
2019-05-11T17:12:14.522Z,24.38
2019-05-11T17:14:59.173Z,24.16
2019-05-11T17:17:27.787Z,24.55
2019-05-11T17:19:54.004Z,24.80
2019-05-11T17:22:21.211Z,24.90
2019-05-11T17:24:48.435Z,24.97
2019-05-11T17:27:14.865Z,25.24
2019-05-11T17:29:41.052Z,25.54
2019-05-11T17:32:08.569Z,26.79
2019-05-11T17:34:35.006Z,27.74
2019-05-11T17:37:01.213Z,27.89
2019-05-11T17:39:28.184Z,28.64
2019-05-11T17:41:54.663Z,28.40
2019-05-11T17:44:20.851Z,28.27
2019-05-11T17:46:47.010Z,28.14
2019-05-11T17:49:13.602Z,28.00
2019-05-11T17:51:39.944Z,27.97
2019-05-11T17:54:07.873Z,28.09
2019-05-11T17:56:34.186Z,28.80
2019-05-11T17:59:00.379Z,29.03
2019-05-11T18:01:27.720Z,29.65
2019-05-11T18:03:54.231Z,29.61
2019-05-11T18:06:20.443Z,30.04
2019-05-11T18:08:47.836Z,30.09
2019-05-11T18:11:14.351Z,30.11
2019-05-11T18:13:40.565Z,30.40
2019-05-11T18:16:08.519Z,31.08
2019-05-11T18:18:34.809Z,31.05
2019-05-11T18:21:01.138Z,31.56
2019-05-11T18:23:28.300Z,31.37
2019-05-11T18:25:54.740Z,31.33
2019-05-11T18:28:20.934Z,31.15
2019-05-11T18:30:47.980Z,31.31
2019-05-11T18:33:14.284Z,31.39
2019-05-11T18:35:40.471Z,31.47
2019-05-11T18:38:08.513Z,31.64
2019-05-11T18:40:34.745Z,32.05
2019-05-11T18:43:01.300Z,32.94
2019-05-11T18:45:28.766Z,33.01
2019-05-11T18:47:55.355Z,32.56
2019-05-11T18:50:30.686Z,32.11
2019-05-11T18:52:49.627Z,32.16
2019-05-11T18:55:15.803Z,32.11
2019-05-11T18:57:42.003Z,32.46
2019-05-11T19:00:09.371Z,32.34
2019-05-11T19:02:37.754Z,32.34
2019-05-11T19:05:05.166Z,32.14
2019-05-11T19:07:31.668Z,32.58
2019-05-11T19:09:57.894Z,33.20
2019-05-11T19:12:24.144Z,32.91
2019-05-11T19:14:50.300Z,33.16
2019-05-11T19:17:18.175Z,33.34
2019-05-11T19:19:44.478Z,33.67
2019-05-11T19:22:10.627Z,32.89
2019-05-11T19:24:38.273Z,32.77
2019-05-11T19:27:04.608Z,32.47
2019-05-11T19:29:30.780Z,32.89
2019-05-11T19:31:58.036Z,32.16
2019-05-11T19:34:24.539Z,32.09
2019-05-11T19:36:50.702Z,32.14
2019-05-11T19:39:19.158Z,31.59
2019-05-11T19:41:44.967Z,32.60
2019-05-11T19:44:11.133Z,31.99
2019-05-11T19:46:38.767Z,32.42
2019-05-11T19:49:05.225Z,32.62
2019-05-11T19:51:31.380Z,32.13
2019-05-11T19:53:57.689Z,32.06
2019-05-11T19:56:24.124Z,31.51
2019-05-11T19:58:50.896Z,31.94
2019-05-11T20:01:18.813Z,31.47
2019-05-11T20:03:45.285Z,31.42
2019-05-11T20:06:11.436Z,31.73
2019-05-11T20:08:37.696Z,31.92
2019-05-11T20:11:03.907Z,31.80
2019-05-11T20:13:30.068Z,32.50
2019-05-11T20:15:57.825Z,32.54
2019-05-11T20:18:24.255Z,32.48
2019-05-11T20:20:50.406Z,34.64
2019-05-11T20:23:16.565Z,34.48
2019-05-11T20:25:42.819Z,34.32
2019-05-11T20:28:08.990Z,34.64
2019-05-11T20:30:35.248Z,33.29
2019-05-11T20:33:01.461Z,32.70
2019-05-11T20:35:28.079Z,32.34
2019-05-11T20:37:54.375Z,32.75
2019-05-11T20:40:20.605Z,32.30
2019-05-11T20:42:48.463Z,31.83
2019-05-11T20:45:15.033Z,32.25
2019-05-11T20:47:41.226Z,31.58
2019-05-11T20:50:08.658Z,32.14
2019-05-11T20:52:34.811Z,31.83
2019-05-11T20:55:01.037Z,31.23
2019-05-11T20:57:28.467Z,31.30
2019-05-11T20:59:54.664Z,31.55
2019-05-11T21:02:20.971Z,32.30
2019-05-11T21:04:49.048Z,32.14
2019-05-11T21:07:15.192Z,32.80
2019-05-11T21:09:41.414Z,31.95
2019-05-11T21:12:08.166Z,32.91
2019-05-11T21:14:34.434Z,31.57
2019-05-11T21:17:00.651Z,32.81
2019-05-11T21:19:28.338Z,32.34
2019-05-11T21:21:54.856Z,31.95
2019-05-11T21:24:21.060Z,31.37
2019-05-11T21:26:47.924Z,32.94
2019-05-11T21:29:15.206Z,33.01
2019-05-11T21:31:41.442Z,32.48
2019-05-11T21:34:08.182Z,33.54
2019-05-11T21:36:34.751Z,34.69
2019-05-11T21:39:01.095Z,34.17
2019-05-11T21:41:28.189Z,34.48
2019-05-11T21:43:55.389Z,34.37
2019-05-11T21:46:21.580Z,35.24
2019-05-11T21:48:47.943Z,35.79
2019-05-11T21:51:14.111Z,35.48
2019-05-11T21:53:40.467Z,35.01
2019-05-11T21:56:08.162Z,35.16
2019-05-11T21:58:34.742Z,35.04
2019-05-11T22:01:01.138Z,35.11
2019-05-11T22:03:28.079Z,35.48
2019-05-11T22:05:54.592Z,35.65
2019-05-11T22:08:20.775Z,36.65
2019-05-11T22:10:46.949Z,36.55
2019-05-11T22:13:13.100Z,38.16
2019-05-11T22:15:39.392Z,38.18
2019-05-11T22:18:07.813Z,37.88
2019-05-11T22:20:33.625Z,40.93
2019-05-11T22:22:59.846Z,38.38
2019-05-11T22:25:26.012Z,38.43
2019-05-11T22:27:52.171Z,37.32
2019-05-11T22:30:18.684Z,36.02
2019-05-11T22:32:45.132Z,35.06
2019-05-11T22:35:11.893Z,34.73
2019-05-11T22:37:39.037Z,34.74
2019-05-11T22:40:08.403Z,35.48
2019-05-11T22:42:34.940Z,35.16
2019-05-11T22:45:01.245Z,34.86
2019-05-11T22:47:28.397Z,35.67
2019-05-11T22:49:54.785Z,35.04
2019-05-11T22:52:33.049Z,35.05
2019-05-11T22:54:49.066Z,34.20
2019-05-11T22:57:15.239Z,34.06
2019-05-11T22:59:41.405Z,33.03
2019-05-11T23:02:10.519Z,35.06
2019-05-11T23:04:38.000Z,34.92
2019-05-11T23:07:03.847Z,34.50
2019-05-11T23:09:30.024Z,35.89
2019-05-11T23:12:00.785Z,35.55
2019-05-11T23:14:24.277Z,36.44
2019-05-11T23:16:50.432Z,35.18
2019-05-11T23:19:18.261Z,37.60
2019-05-11T23:21:44.696Z,35.69
2019-05-11T23:24:10.855Z,36.03
2019-05-11T23:26:38.613Z,37.03
2019-05-11T23:29:04.980Z,36.94
2019-05-11T23:31:31.252Z,35.65
2019-05-11T23:33:57.856Z,35.69
2019-05-11T23:36:24.329Z,35.25
2019-05-11T23:38:50.497Z,34.57
2019-05-11T23:41:24.069Z,34.63
2019-05-11T23:43:44.839Z,34.32
2019-05-11T23:46:11.011Z,35.25
2019-05-11T23:48:38.617Z,35.82
2019-05-11T23:51:05.469Z,35.92
2019-05-11T23:53:31.629Z,35.98
2019-05-11T23:55:58.027Z,35.96
2019-05-11T23:58:24.476Z,36.55
